9°C
Porth, Newquay, Cornwall. UK  Tell A Friend
 Ad **Ad
Updated17/12/2017 00:30 
 


More METAR Reports From


Metar Station     Metar Station     Metar Station     Metar Station     Metar Station
EGBB Birmingham     EGBE Coventry     EGLL London Heathrow     EGKK London Gatwick     EGGP Liverpool
EGGW Luton     EGNX East Midlands     EGLC London City     EGCC Mancester Intl     EGSS Stanstead
Local Metars Here                                
EGBB - Birmingham Airpo, United Kingdom
Updated: 17/12/2017 00:20
Partial fog, Few clouds
Partial fog, Few clouds
 Wind from E
Wind: E 1 mph , 2 km/h, 1 kts
Temperature: 1°C
Dew Point: 1°C
Humidity: 100%
Barometer: 1023 hPa
Summary: Partial Fog
Clouds: Few Clouds
Visibility: 6 miles , 9 km
Cloud details: Few Clouds 213 m
2017/12/17 00:20 EGBB 170020Z 08001KT 9000 2000N PRFG FEW007 01/01 Q1023
EGBE - Coventry Airport, United Kingdom
Updated: 18/07/2017 14:50

NOT Current
Clear
Clear
 Wind from E
Wind: E 16 mph , 26 km/h, 14 kts
Temperature: 27°C
Heat Index: 27°C
Dew Point: 14°C
Humidity: 45%
Barometer: 1015 hPa
Summary: Clear
Visibility: greater than 7 miles , 10 km
2017/07/18 13:50 EGBE 181350Z 10014KT 060V120 CAVOK 27/14 Q1015
 
EGLL - London/Heathrow, United Kingdom
Updated: 17/12/2017 00:20
Clear
Clear
 Wind from W
Wind: W 6 mph , 9 km/h, 5 kts
Temperature: 0°C
Wind Chill: -3°C
Dew Point: -1°C
Humidity: 93%
Barometer: 1023 hPa
Clouds: Clear
Visibility: 4 miles , 6 km
2017/12/17 00:20 EGLL 170020Z AUTO 28005KT 6000 NCD 00/M01 Q1023 BECMG 4000 BR
EGKK - London/Gatwick A, United Kingdom
Updated: 17/12/2017 00:20
Few Clouds
Few Clouds
 Wind from NW
Wind: NW 5 mph , 7 km/h, 4 kts
Temperature: 2°C
Wind Chill: 0°C
Dew Point: 1°C
Humidity: 93%
Barometer: 1023 hPa
Clouds: Few Clouds
Visibility: 6 miles , 10 km
Cloud details: Few Clouds 305 m
2017/12/17 00:20 EGKK 170020Z 31004KT 9999 FEW010 02/01 Q1023
 
EGGP - Liverpool Airpor, United Kingdom
Updated: 17/12/2017 00:20
Shallow fog, Few clouds
Shallow fog, Few clouds
 Wind from varies
Wind: varies 3 mph , 6 km/h, 3 kts
Temperature: 0°C
Dew Point: 0°C
Humidity: 100%
Barometer: 1023 hPa
Summary: Shallow Fog
Clouds: Few Clouds
Visibility: 6 miles , 9 km
Cloud details: Few Clouds 579 m
2017/12/17 00:20 EGGP 170020Z VRB03KT 9000 R27/0450 MIFG FEW019 00/00 Q1023
EGGW - Luton Airport, United Kingdom
Updated: 17/12/2017 00:20
Mist, Few clouds
Mist, Few clouds
 Wind from WNW
Wind: WNW 8 mph , 13 km/h, 7 kts
Temperature: 0°C
Wind Chill: -4°C
Dew Point: -1°C
Humidity: 93%
Barometer: 1022 hPa
Summary: Mist
Clouds: Few Clouds
Visibility: 2 miles , 3 km
Cloud details: Few Clouds 61 m
2017/12/17 00:20 EGGW 170020Z 29007KT 3200 BR FEW002 M00/M01 Q1022
 
EGNX - East Midlands, United Kingdom
Updated: 17/12/2017 00:20
Partly Cloudy
Partly Cloudy
 Wind from WSW
Wind: WSW 9 mph , 15 km/h, 8 kts
Temperature: -1°C
Wind Chill: -6°C
Dew Point: -1°C
Humidity: 100%
Barometer: 1023 hPa
Clouds: Partly Cloudy
Visibility: 5 miles , 8 km
2017/12/17 00:20 EGNX 170020Z 24008KT 8000 NSC M01/M01 Q1023
EGLC - London City Airp, United Kingdom
Updated: 17/12/2017 00:20
Clear
Clear
 Wind from W
Wind: W 8 mph , 13 km/h, 7 kts
Temperature: 3°C
Wind Chill: -1°C
Dew Point: 1°C
Humidity: 87%
Barometer: 1023 hPa
Clouds: Clear
Visibility: 6 miles , 9 km
2017/12/17 00:20 EGLC 170020Z AUTO 28007KT 9000 NCD 03/01 Q1023
 
EGCC - Manchester Intl, United Kingdom
Updated: 17/12/2017 00:20
Fog
Fog
 Wind from varies
Wind: varies 2 mph , 4 km/h, 2 kts
Temperature: 1°C
Dew Point: 0°C
Humidity: 93%
Barometer: 1023 hPa
Summary: Fog
Visibility: 0 mile , 0 km
2017/12/17 00:20 EGCC 170020Z AUTO VRB02KT 0300 R23R/1000 FG VV/// 01/00 Q1023 NOSIG
EGSS - Stansted Airport, United Kingdom
Updated: 17/12/2017 00:20
Mist, Clear
Mist, Clear
 Wind from WNW
Wind: WNW 6 mph , 9 km/h, 5 kts
Temperature: 0°C
Wind Chill: -3°C
Dew Point: -1°C
Humidity: 93%
Barometer: 1022 hPa
Summary: Mist
Clouds: Clear
Visibility: 2 miles , 3 km
2017/12/17 00:20 EGSS 170020Z AUTO 30005KT 2600 BR NCD M00/M01 Q1022

Metar, brief description

METAR is a format for reporting weather information. A METAR weather report is predominantly used by pilots in fulfillment of a part of a pre-flight weather briefing, and by meteorologists, who use aggregated METAR information to assist in weather forecasting.

Raw METAR is the most popular format in the world for the transmission of weather data. Each METAR report contains essential information about the current weather conditions: Temperature, Dew Point, Barometric Pressure, Wind Speed and Direction, Visibility, Clouds Cover, Current Weather (Rain, Thunderstorms, Hail, Snow and so on...), here is an example of a raw metar report for EGHQ (Newquay airport).
METAR not available